Terminal Aerodrome Forecast
Issued by NWS

Home | Current Version | Previous Version | Text Only | Print | Product List | Glossary Off
Versions: 1 2 3 4 5 6 7 8 9 10 11 12 13 14 15 16 17 18 19

895
FTUS42 KMHX 212358
TAFPGV
TAF
KPGV 212358Z 2200/2224 00000KT P6SM SKC
     FM220400 00000KT 3SM BR SKC
     FM220800 00000KT 2SM BR SCT005
      TEMPO 2208/2212 1SM BR BKN005
     FM221300 VRB04KT P6SM SCT050
      AMD LTD TO CLD VIS AND WIND=

USA.gov is the U.S. government's official web portal to all federal, state and local government web resources and services.